Time,TemperatureF,DewpointF,PressureIn,WindDirection,WindDirectionDegrees,WindSpeedMPH,WindSpeedGustMPH,Humidity,HourlyPrecipIn,Conditions,Clouds,dailyrainin,SolarRadiationWatts/m^2,SoftwareType,DateUTC
2013-06-14 00:03:00,63.2,59.0,29.99,East,96,9.0,-999.0,85,-99.99,,,0.00,0,weatherlink.com 1.10,2013-06-14 05:03:00,
2013-06-14 00:18:00,63.5,59.0,30.00,East,95,11.0,-999.0,84,-99.99,,,0.00,0,weatherlink.com 1.10,2013-06-14 05:18:00,
2013-06-14 00:33:00,63.9,59.0,29.99,East,101,11.0,-999.0,83,-99.99,,,0.00,0,weatherlink.com 1.10,2013-06-14 05:33:00,
2013-06-14 00:48:00,64.0,59.0,29.99,East,100,11.0,-999.0,83,-99.99,,,0.00,0,weatherlink.com 1.10,2013-06-14 05:48:00,
2013-06-14 01:03:00,64.0,58.0,30.00,East,80,5.0,-999.0,82,-99.99,,,0.00,0,weatherlink.com 1.10,2013-06-14 06:03:00,
2013-06-14 01:18:00,64.0,58.0,30.02,ENE,65,2.0,-999.0,82,-99.99,,,0.00,0,weatherlink.com 1.10,2013-06-14 06:18:00,
2013-06-14 01:33:00,63.9,58.0,30.03,ENE,62,1.0,-999.0,82,-99.99,,,0.00,0,weatherlink.com 1.10,2013-06-14 06:33:00,
2013-06-14 01:48:00,63.9,59.0,30.04,NE,53,2.0,-999.0,83,-99.99,,,0.00,0,weatherlink.com 1.10,2013-06-14 06:48:00,
2013-06-14 02:03:00,64.0,59.0,30.01,ESE,103,5.0,-999.0,84,-99.99,,,0.00,0,weatherlink.com 1.10,2013-06-14 07:03:00,
2013-06-14 02:18:00,63.5,59.0,29.99,SE,126,8.0,-999.0,84,-99.99,,,0.00,0,weatherlink.com 1.10,2013-06-14 07:18:00,
2013-06-14 02:34:00,63.3,58.0,29.98,SE,130,8.0,-999.0,84,-99.99,,,0.00,0,weatherlink.com 1.10,2013-06-14 07:34:00,
2013-06-14 02:49:00,63.2,58.0,29.99,SE,146,5.0,-999.0,84,-99.99,,,0.00,0,weatherlink.com 1.10,2013-06-14 07:49:00,
2013-06-14 03:04:00,63.5,59.0,29.99,ESE,114,4.0,-999.0,84,-99.99,,,0.00,0,weatherlink.com 1.10,2013-06-14 08:04:00,
2013-06-14 03:19:00,63.6,59.0,29.98,East,96,5.0,-999.0,84,-99.99,,,0.00,0,weatherlink.com 1.10,2013-06-14 08:19:00,
2013-06-14 03:34:00,63.9,59.0,29.98,ESE,107,7.0,-999.0,84,-99.99,,,0.00,0,weatherlink.com 1.10,2013-06-14 08:34:00,
2013-06-14 03:49:00,63.9,59.0,29.97,ESE,105,8.0,-999.0,84,-99.99,,,0.00,0,weatherlink.com 1.10,2013-06-14 08:49:00,
2013-06-14 04:04:00,63.9,59.0,29.95,ESE,116,9.0,-999.0,84,-99.99,,,0.00,0,weatherlink.com 1.10,2013-06-14 09:04:00,
2013-06-14 04:19:00,64.0,59.0,29.95,ESE,113,8.0,-999.0,83,-99.99,,,0.00,0,weatherlink.com 1.10,2013-06-14 09:19:00,
2013-06-14 04:34:00,64.9,59.0,29.94,SE,133,13.0,-999.0,82,-99.99,,,0.00,0,weatherlink.com 1.10,2013-06-14 09:34:00,
2013-06-14 04:49:00,64.9,59.0,29.93,SE,126,15.0,-999.0,82,-99.99,,,0.00,0,weatherlink.com 1.10,2013-06-14 09:49:00,
2013-06-14 05:04:00,64.9,59.0,29.94,SE,136,11.0,-999.0,82,-99.99,,,0.00,0,weatherlink.com 1.10,2013-06-14 10:04:00,
2013-06-14 05:19:00,65.2,60.0,29.94,SE,130,11.0,-999.0,83,-99.99,,,0.00,0,weatherlink.com 1.10,2013-06-14 10:19:00,
2013-06-14 05:34:00,65.4,60.0,29.95,SE,138,13.0,-999.0,83,-99.99,,,0.00,0,weatherlink.com 1.10,2013-06-14 10:34:00,
2013-06-14 05:49:00,65.6,60.0,29.94,ESE,123,14.0,-999.0,82,-99.99,,,0.00,0,weatherlink.com 1.10,2013-06-14 10:49:00,
2013-06-14 06:04:00,65.6,60.0,29.95,SSE,148,11.0,-999.0,83,-99.99,,,0.00,0,weatherlink.com 1.10,2013-06-14 11:04:00,
2013-06-14 06:19:00,65.8,61.0,29.95,SSE,159,8.0,-999.0,83,-99.99,,,0.00,0,weatherlink.com 1.10,2013-06-14 11:19:00,
2013-06-14 06:34:00,65.9,61.0,29.93,SSE,151,16.0,-999.0,84,-99.99,,,0.00,21,weatherlink.com 1.10,2013-06-14 11:34:00,
2013-06-14 06:49:00,65.9,61.0,29.94,SSE,157,14.0,-999.0,84,-99.99,,,0.00,23,weatherlink.com 1.10,2013-06-14 11:49:00,
2013-06-14 07:04:00,65.9,61.0,29.93,SSE,148,17.0,-999.0,84,-99.99,,,0.00,16,weatherlink.com 1.10,2013-06-14 12:04:00,
2013-06-14 07:19:00,65.6,61.0,29.93,SSE,166,11.0,-999.0,85,-99.99,,,0.00,12,weatherlink.com 1.10,2013-06-14 12:19:00,
2013-06-14 07:34:00,65.7,62.0,29.93,SSE,155,16.0,-999.0,86,-99.99,,,0.00,11,weatherlink.com 1.10,2013-06-14 12:34:00,
2013-06-14 07:49:00,66.2,62.0,29.93,South,190,12.0,-999.0,85,-99.99,,,0.00,11,weatherlink.com 1.10,2013-06-14 12:49:00,
2013-06-14 08:04:00,66.3,62.0,29.92,SSE,157,14.0,-999.0,85,-99.99,,,0.00,11,weatherlink.com 1.10,2013-06-14 13:04:00,
2013-06-14 08:19:00,66.7,62.0,29.91,SSE,153,17.0,-999.0,84,-99.99,,,0.00,16,weatherlink.com 1.10,2013-06-14 13:19:00,
2013-06-14 08:34:00,66.6,62.0,29.91,SSE,166,12.0,-999.0,85,-99.99,,,0.00,21,weatherlink.com 1.10,2013-06-14 13:34:00,
2013-06-14 08:49:00,66.7,62.0,29.91,South,178,19.0,-999.0,85,-99.99,,,0.00,26,weatherlink.com 1.10,2013-06-14 13:49:00,
2013-06-14 09:04:00,66.8,63.0,29.89,SSE,159,20.0,-999.0,86,-99.99,,,0.00,28,weatherlink.com 1.10,2013-06-14 14:04:00,
2013-06-14 09:19:00,66.9,63.0,29.88,SSE,155,13.0,-999.0,86,-99.99,,,0.00,26,weatherlink.com 1.10,2013-06-14 14:19:00,
2013-06-14 09:34:00,67.3,63.0,29.83,South,180,18.0,-999.0,86,-99.99,,,0.00,49,weatherlink.com 1.10,2013-06-14 14:34:00,
2013-06-14 09:49:00,68.3,64.0,29.84,South,190,32.0,-999.0,86,-99.99,,,0.00,139,weatherlink.com 1.10,2013-06-14 14:49:00,
2013-06-14 10:04:00,70.0,65.0,29.83,South,181,24.0,-999.0,85,-99.99,,,0.00,272,weatherlink.com 1.10,2013-06-14 15:04:00,
2013-06-14 10:19:00,72.1,66.0,29.83,South,185,24.0,-999.0,82,-99.99,,,0.00,374,weatherlink.com 1.10,2013-06-14 15:19:00,
2013-06-14 10:35:00,74.1,68.0,29.83,South,182,25.0,-999.0,80,-99.99,,,0.00,538,weatherlink.com 1.10,2013-06-14 15:35:00,
2013-06-14 10:50:00,76.6,69.0,29.83,South,176,20.0,-999.0,78,-99.99,,,0.00,585,weatherlink.com 1.10,2013-06-14 15:50:00,